sensor_id;sensor_type;location;lat;lon;timestamp;pressure;altitude;pressure_sealevel;temperature;humidity
57248;BME280;55809;46.618;10.764;2023-12-04T00:00:31;93539.53;;;-2.58;100.00
57248;BME280;55809;46.618;10.764;2023-12-04T00:02:58;93548.47;;;-2.68;100.00
57248;BME280;55809;46.618;10.764;2023-12-04T00:05:25;93451.19;;;-3.34;100.00
57248;BME280;55809;46.618;10.764;2023-12-04T00:07:51;93545.34;;;-2.48;100.00
57248;BME280;55809;46.618;10.764;2023-12-04T00:10:18;93547.88;;;-2.65;100.00
57248;BME280;55809;46.618;10.764;2023-12-04T00:12:47;93550.16;;;-2.72;100.00
57248;BME280;55809;46.618;10.764;2023-12-04T00:15:14;93550.50;;;-2.65;100.00
57248;BME280;55809;46.618;10.764;2023-12-04T00:17:41;93527.56;;;-2.78;100.00
57248;BME280;55809;46.618;10.764;2023-12-04T00:20:09;93550.78;;;-2.67;100.00
57248;BME280;55809;46.618;10.764;2023-12-04T00:22:36;93538.31;;;-2.75;100.00
57248;BME280;55809;46.618;10.764;2023-12-04T00:25:03;93543.41;;;-2.78;100.00
57248;BME280;55809;46.618;10.764;2023-12-04T00:27:30;93543.53;;;-2.84;100.00
57248;BME280;55809;46.618;10.764;2023-12-04T00:29:59;93542.19;;;-2.95;100.00
57248;BME280;55809;46.618;10.764;2023-12-04T00:32:25;93546.03;;;-3.01;100.00
57248;BME280;55809;46.618;10.764;2023-12-04T00:34:52;93541.56;;;-3.14;100.00
57248;BME280;55809;46.618;10.764;2023-12-04T00:37:19;93550.50;;;-3.24;100.00
57248;BME280;55809;46.618;10.764;2023-12-04T00:39:46;93531.91;;;-3.33;100.00
57248;BME280;55809;46.618;10.764;2023-12-04T00:42:13;93539.06;;;-3.33;100.00
57248;BME280;55809;46.618;10.764;2023-12-04T00:44:40;93542.16;;;-3.17;100.00
57248;BME280;55809;46.618;10.764;2023-12-04T00:47:08;93462.69;;;-3.52;100.00
57248;BME280;55809;46.618;10.764;2023-12-04T00:49:36;93535.31;;;-3.18;100.00
57248;BME280;55809;46.618;10.764;2023-12-04T00:52:03;93535.75;;;-3.39;100.00
57248;BME280;55809;46.618;10.764;2023-12-04T00:54:30;93533.59;;;-3.37;100.00
57248;BME280;55809;46.618;10.764;2023-12-04T00:56:57;93534.91;;;-3.48;100.00
57248;BME280;55809;46.618;10.764;2023-12-04T00:59:24;93530.50;;;-3.39;100.00
57248;BME280;55809;46.618;10.764;2023-12-04T01:01:51;93536.31;;;-3.28;100.00
57248;BME280;55809;46.618;10.764;2023-12-04T01:04:19;93528.59;;;-3.24;100.00
57248;BME280;55809;46.618;10.764;2023-12-04T01:06:46;93488.03;;;-3.65;100.00
57248;BME280;55809;46.618;10.764;2023-12-04T01:09:13;93524.41;;;-3.39;100.00
57248;BME280;55809;46.618;10.764;2023-12-04T01:11:40;93525.09;;;-3.34;100.00
57248;BME280;55809;46.618;10.764;2023-12-04T01:14:07;93525.09;;;-3.34;100.00
57248;BME280;55809;46.618;10.764;2023-12-04T01:16:34;93530.84;;;-3.32;100.00
57248;BME280;55809;46.618;10.764;2023-12-04T01:19:00;93521.97;;;-3.49;100.00
57248;BME280;55809;46.618;10.764;2023-12-04T01:21:29;93523.75;;;-3.45;100.00
57248;BME280;55809;46.618;10.764;2023-12-04T01:23:56;93523.81;;;-3.36;100.00
57248;BME280;55809;46.618;10.764;2023-12-04T01:26:23;93524.31;;;-3.34;100.00
57248;BME280;55809;46.618;10.764;2023-12-04T01:28:50;93524.69;;;-3.27;100.00
57248;BME280;55809;46.618;10.764;2023-12-04T01:31:16;93523.53;;;-3.35;100.00
57248;BME280;55809;46.618;10.764;2023-12-04T01:33:43;93522.16;;;-3.32;100.00
57248;BME280;55809;46.618;10.764;2023-12-04T01:36:10;93512.19;;;-3.49;100.00
57248;BME280;55809;46.618;10.764;2023-12-04T01:38:38;93517.94;;;-3.33;100.00
57248;BME280;55809;46.618;10.764;2023-12-04T01:41:06;93504.31;;;-3.63;100.00
57248;BME280;55809;46.618;10.764;2023-12-04T01:43:33;93510.00;;;-3.69;100.00
57248;BME280;55809;46.618;10.764;2023-12-04T01:46:01;93517.50;;;-3.63;100.00
57248;BME280;55809;46.618;10.764;2023-12-04T01:48:28;93511.81;;;-3.56;100.00
57248;BME280;55809;46.618;10.764;2023-12-04T01:50:55;93466.63;;;-3.77;100.00
57248;BME280;55809;46.618;10.764;2023-12-04T01:53:24;93504.41;;;-3.54;100.00
57248;BME280;55809;46.618;10.764;2023-12-04T01:55:52;93501.66;;;-3.49;100.00
57248;BME280;55809;46.618;10.764;2023-12-04T01:58:20;93303.31;;;-4.87;100.00
57248;BME280;55809;46.618;10.764;2023-12-04T02:00:47;93516.84;;;-3.68;100.00
57248;BME280;55809;46.618;10.764;2023-12-04T02:03:14;93509.22;;;-3.70;100.00
57248;BME280;55809;46.618;10.764;2023-12-04T02:05:43;93503.25;;;-3.62;100.00
57248;BME280;55809;46.618;10.764;2023-12-04T02:08:11;93493.63;;;-3.44;100.00
57248;BME280;55809;46.618;10.764;2023-12-04T02:10:38;93490.00;;;-3.34;100.00
57248;BME280;55809;46.618;10.764;2023-12-04T02:13:07;93482.16;;;-3.25;100.00
57248;BME280;55809;46.618;10.764;2023-12-04T02:15:33;93483.63;;;-3.33;100.00
57248;BME280;55809;46.618;10.764;2023-12-04T02:18:02;93483.34;;;-3.32;100.00
57248;BME280;55809;46.618;10.764;2023-12-04T02:20:33;93496.13;;;-3.25;100.00
57248;BME280;55809;46.618;10.764;2023-12-04T02:23:00;93503.47;;;-3.22;100.00
57248;BME280;55809;46.618;10.764;2023-12-04T02:25:29;93498.88;;;-3.30;100.00
57248;BME280;55809;46.618;10.764;2023-12-04T02:27:59;93506.56;;;-3.20;100.00
57248;BME280;55809;46.618;10.764;2023-12-04T02:30:28;93497.19;;;-3.48;100.00
57248;BME280;55809;46.618;10.764;2023-12-04T02:32:58;93509.16;;;-3.42;100.00
57248;BME280;55809;46.618;10.764;2023-12-04T02:35:29;93512.84;;;-3.30;100.00
57248;BME280;55809;46.618;10.764;2023-12-04T02:37:58;93519.03;;;-3.34;100.00
57248;BME280;55809;46.618;10.764;2023-12-04T02:40:26;93486.03;;;-3.45;100.00
57248;BME280;55809;46.618;10.764;2023-12-04T02:42:55;93522.34;;;-3.28;100.00
57248;BME280;55809;46.618;10.764;2023-12-04T02:45:22;93523.72;;;-3.31;100.00
57248;BME280;55809;46.618;10.764;2023-12-04T02:47:48;93410.69;;;-4.02;100.00
57248;BME280;55809;46.618;10.764;2023-12-04T02:50:15;93509.84;;;-3.37;100.00
57248;BME280;55809;46.618;10.764;2023-12-04T02:52:42;93505.53;;;-3.33;100.00
57248;BME280;55809;46.618;10.764;2023-12-04T02:55:09;93478.41;;;-3.47;100.00
57248;BME280;55809;46.618;10.764;2023-12-04T02:57:36;93506.44;;;-3.37;100.00
57248;BME280;55809;46.618;10.764;2023-12-04T03:00:06;93511.03;;;-3.43;100.00
57248;BME280;55809;46.618;10.764;2023-12-04T03:02:33;93503.97;;;-3.34;100.00
57248;BME280;55809;46.618;10.764;2023-12-04T03:05:00;93499.97;;;-3.31;100.00
57248;BME280;55809;46.618;10.764;2023-12-04T03:07:26;93510.72;;;-3.27;100.00
57248;BME280;55809;46.618;10.764;2023-12-04T03:09:53;93510.41;;;-3.26;100.00
57248;BME280;55809;46.618;10.764;2023-12-04T03:12:20;93501.06;;;-3.32;100.00
57248;BME280;55809;46.618;10.764;2023-12-04T03:14:47;93501.06;;;-3.32;100.00
57248;BME280;55809;46.618;10.764;2023-12-04T03:17:15;93506.22;;;-3.27;100.00
57248;BME280;55809;46.618;10.764;2023-12-04T03:19:42;93501.78;;;-3.18;100.00
57248;BME280;55809;46.618;10.764;2023-12-04T03:22:09;93497.19;;;-3.12;100.00
57248;BME280;55809;46.618;10.764;2023-12-04T03:24:36;93409.50;;;-3.82;100.00
57248;BME280;55809;46.618;10.764;2023-12-04T03:27:03;93482.69;;;-3.37;100.00
57248;BME280;55809;46.618;10.764;2023-12-04T03:29:29;93496.38;;;-3.35;100.00
57248;BME280;55809;46.618;10.764;2023-12-04T03:31:56;93491.97;;;-3.40;100.00
57248;BME280;55809;46.618;10.764;2023-12-04T03:34:24;93495.19;;;-3.43;100.00
57248;BME280;55809;46.618;10.764;2023-12-04T03:36:51;93487.00;;;-3.41;100.00
57248;BME280;55809;46.618;10.764;2023-12-04T03:39:18;93487.66;;;-3.36;100.00
57248;BME280;55809;46.618;10.764;2023-12-04T03:41:45;93480.13;;;-3.28;100.00
57248;BME280;55809;46.618;10.764;2023-12-04T03:44:13;93486.59;;;-3.35;100.00
57248;BME280;55809;46.618;10.764;2023-12-04T03:46:40;93485.00;;;-3.36;100.00
57248;BME280;55809;46.618;10.764;2023-12-04T03:49:06;93477.06;;;-3.58;100.00
57248;BME280;55809;46.618;10.764;2023-12-04T03:51:35;93471.59;;;-3.75;100.00
57248;BME280;55809;46.618;10.764;2023-12-04T03:54:02;93479.91;;;-3.68;100.00
57248;BME280;55809;46.618;10.764;2023-12-04T03:56:29;93472.00;;;-3.68;100.00
57248;BME280;55809;46.618;10.764;2023-12-04T03:58:56;93468.25;;;-3.54;100.00
57248;BME280;55809;46.618;10.764;2023-12-04T04:01:23;93463.84;;;-3.44;100.00
57248;BME280;55809;46.618;10.764;2023-12-04T04:03:50;93420.41;;;-3.61;100.00
57248;BME280;55809;46.618;10.764;2023-12-04T04:06:16;93454.59;;;-3.33;100.00
57248;BME280;55809;46.618;10.764;2023-12-04T04:08:44;93465.03;;;-3.50;100.00
57248;BME280;55809;46.618;10.764;2023-12-04T04:11:11;93360.13;;;-4.04;100.00
57248;BME280;55809;46.618;10.764;2023-12-04T04:13:38;93458.75;;;-3.41;100.00
57248;BME280;55809;46.618;10.764;2023-12-04T04:16:07;93465.97;;;-3.46;100.00
57248;BME280;55809;46.618;10.764;2023-12-04T04:18:34;93470.69;;;-3.57;100.00
57248;BME280;55809;46.618;10.764;2023-12-04T04:21:01;93468.09;;;-3.71;100.00
57248;BME280;55809;46.618;10.764;2023-12-04T04:23:28;93471.03;;;-3.86;100.00
57248;BME280;55809;46.618;10.764;2023-12-04T04:25:57;93464.97;;;-3.87;100.00
57248;BME280;55809;46.618;10.764;2023-12-04T04:28:23;93464.78;;;-3.90;100.00
57248;BME280;55809;46.618;10.764;2023-12-04T04:30:50;93467.13;;;-3.89;100.00
57248;BME280;55809;46.618;10.764;2023-12-04T04:33:17;93473.66;;;-3.86;100.00
57248;BME280;55809;46.618;10.764;2023-12-04T04:35:44;93473.16;;;-3.88;100.00
57248;BME280;55809;46.618;10.764;2023-12-04T04:38:11;93473.88;;;-3.96;100.00
57248;BME280;55809;46.618;10.764;2023-12-04T04:40:38;93482.75;;;-3.92;100.00
57248;BME280;55809;46.618;10.764;2023-12-04T04:43:10;93492.03;;;-3.81;100.00
57248;BME280;55809;46.618;10.764;2023-12-04T04:45:37;93477.78;;;-3.80;100.00
57248;BME280;55809;46.618;10.764;2023-12-04T04:48:04;93474.81;;;-3.79;100.00
57248;BME280;55809;46.618;10.764;2023-12-04T04:50:31;93469.94;;;-3.85;100.00
57248;BME280;55809;46.618;10.764;2023-12-04T04:52:58;93475.03;;;-3.89;100.00
57248;BME280;55809;46.618;10.764;2023-12-04T04:55:24;93476.91;;;-3.89;100.00
57248;BME280;55809;46.618;10.764;2023-12-04T04:57:51;93471.81;;;-3.86;100.00
57248;BME280;55809;46.618;10.764;2023-12-04T05:00:20;93469.69;;;-3.97;100.00
57248;BME280;55809;46.618;10.764;2023-12-04T05:02:47;93468.13;;;-4.12;100.00
57248;BME280;55809;46.618;10.764;2023-12-04T05:05:13;93469.09;;;-3.94;100.00
57248;BME280;55809;46.618;10.764;2023-12-04T05:07:40;93470.09;;;-4.04;100.00
57248;BME280;55809;46.618;10.764;2023-12-04T05:10:08;93466.34;;;-4.03;100.00
57248;BME280;55809;46.618;10.764;2023-12-04T05:12:35;93466.66;;;-3.91;100.00
57248;BME280;55809;46.618;10.764;2023-12-04T05:15:02;93458.13;;;-3.74;100.00
57248;BME280;55809;46.618;10.764;2023-12-04T05:17:30;93453.41;;;-3.63;100.00
57248;BME280;55809;46.618;10.764;2023-12-04T05:19:57;93439.72;;;-3.65;100.00
57248;BME280;55809;46.618;10.764;2023-12-04T05:22:24;93438.00;;;-3.70;100.00
57248;BME280;55809;46.618;10.764;2023-12-04T05:24:51;93428.13;;;-3.64;100.00
57248;BME280;55809;46.618;10.764;2023-12-04T05:27:18;93423.53;;;-3.72;100.00
57248;BME280;55809;46.618;10.764;2023-12-04T05:29:44;93413.56;;;-3.75;100.00
57248;BME280;55809;46.618;10.764;2023-12-04T05:32:12;93415.84;;;-3.83;100.00
57248;BME280;55809;46.618;10.764;2023-12-04T05:34:41;93408.22;;;-3.70;100.00
57248;BME280;55809;46.618;10.764;2023-12-04T05:37:08;93317.34;;;-4.37;100.00
57248;BME280;55809;46.618;10.764;2023-12-04T05:39:36;93407.13;;;-3.69;100.00
57248;BME280;55809;46.618;10.764;2023-12-04T05:42:03;93398.34;;;-3.65;100.00
57248;BME280;55809;46.618;10.764;2023-12-04T05:44:31;93405.94;;;-3.63;100.00
57248;BME280;55809;46.618;10.764;2023-12-04T05:46:57;93411.22;;;-3.63;100.00
57248;BME280;55809;46.618;10.764;2023-12-04T05:49:24;93404.16;;;-3.54;100.00
57248;BME280;55809;46.618;10.764;2023-12-04T05:51:52;93408.56;;;-3.63;100.00
57248;BME280;55809;46.618;10.764;2023-12-04T05:54:20;93410.31;;;-3.59;100.00
57248;BME280;55809;46.618;10.764;2023-12-04T05:56:46;93408.22;;;-3.70;100.00
57248;BME280;55809;46.618;10.764;2023-12-04T05:59:13;93406.59;;;-3.58;100.00
57248;BME280;55809;46.618;10.764;2023-12-04T06:01:40;93415.97;;;-3.51;100.00
57248;BME280;55809;46.618;10.764;2023-12-04T06:04:07;93415.63;;;-3.36;100.00
57248;BME280;55809;46.618;10.764;2023-12-04T06:06:37;93405.28;;;-3.46;100.00
57248;BME280;55809;46.618;10.764;2023-12-04T06:09:10;93410.09;;;-3.48;100.00
57248;BME280;55809;46.618;10.764;2023-12-04T06:11:39;93402.19;;;-3.48;100.00
57248;BME280;55809;46.618;10.764;2023-12-04T06:14:06;93398.22;;;-3.37;100.00
57248;BME280;55809;46.618;10.764;2023-12-04T06:16:34;93359.16;;;-3.49;100.00
57248;BME280;55809;46.618;10.764;2023-12-04T06:19:09;93396.06;;;-3.13;100.00
57248;BME280;55809;46.618;10.764;2023-12-04T06:21:37;93319.66;;;-3.63;100.00
57248;BME280;55809;46.618;10.764;2023-12-04T06:24:22;93402.66;;;-3.24;100.00
57248;BME280;55809;46.618;10.764;2023-12-04T06:26:56;93403.16;;;-3.22;100.00
57248;BME280;55809;46.618;10.764;2023-12-04T06:29:24;93357.50;;;-3.67;100.00
57248;BME280;55809;46.618;10.764;2023-12-04T06:31:51;93407.06;;;-3.42;100.00
57248;BME280;55809;46.618;10.764;2023-12-04T06:34:19;93387.72;;;-3.51;100.00
57248;BME280;55809;46.618;10.764;2023-12-04T06:36:47;93393.91;;;-3.33;100.00
57248;BME280;55809;46.618;10.764;2023-12-04T06:39:16;93385.97;;;-3.33;100.00
57248;BME280;55809;46.618;10.764;2023-12-04T06:41:44;93390.72;;;-3.21;100.00
57248;BME280;55809;46.618;10.764;2023-12-04T06:44:12;93384.84;;;-3.18;100.00
57248;BME280;55809;46.618;10.764;2023-12-04T06:46:41;93376.00;;;-3.22;100.00
57248;BME280;55809;46.618;10.764;2023-12-04T06:49:11;93387.31;;;-3.22;100.00
57248;BME280;55809;46.618;10.764;2023-12-04T06:51:40;93395.66;;;-3.28;100.00
57248;BME280;55809;46.618;10.764;2023-12-04T06:54:07;93402.00;;;-3.30;100.00
57248;BME280;55809;46.618;10.764;2023-12-04T06:56:35;93401.22;;;-3.30;100.00
57248;BME280;55809;46.618;10.764;2023-12-04T06:59:02;93399.97;;;-3.33;100.00
57248;BME280;55809;46.618;10.764;2023-12-04T07:01:29;93398.47;;;-3.25;100.00
57248;BME280;55809;46.618;10.764;2023-12-04T07:03:56;93399.44;;;-3.21;100.00
57248;BME280;55809;46.618;10.764;2023-12-04T07:06:23;93319.72;;;-3.77;100.00
57248;BME280;55809;46.618;10.764;2023-12-04T07:08:50;93286.28;;;-3.90;100.00
57248;BME280;55809;46.618;10.764;2023-12-04T07:11:17;93377.56;;;-3.13;100.00
57248;BME280;55809;46.618;10.764;2023-12-04T07:13:46;93376.97;;;-3.10;100.00
57248;BME280;55809;46.618;10.764;2023-12-04T07:16:13;93387.34;;;-3.13;100.00
57248;BME280;55809;46.618;10.764;2023-12-04T07:18:40;93256.00;;;-3.92;100.00
57248;BME280;55809;46.618;10.764;2023-12-04T07:21:07;93381.47;;;-3.10;100.00
57248;BME280;55809;46.618;10.764;2023-12-04T07:23:35;93326.38;;;-3.34;100.00
57248;BME280;55809;46.618;10.764;2023-12-04T07:26:02;93392.91;;;-2.70;100.00
57248;BME280;55809;46.618;10.764;2023-12-04T07:28:32;93393.44;;;-2.81;100.00
57248;BME280;55809;46.618;10.764;2023-12-04T07:31:16;93382.06;;;-2.91;100.00
57248;BME280;55809;46.618;10.764;2023-12-04T07:33:45;93390.16;;;-2.87;100.00
57248;BME280;55809;46.618;10.764;2023-12-04T07:36:13;93388.59;;;-2.88;100.00
57248;BME280;55809;46.618;10.764;2023-12-04T07:38:42;93379.44;;;-3.13;100.00
57248;BME280;55809;46.618;10.764;2023-12-04T07:41:12;93364.50;;;-3.18;100.00
57248;BME280;55809;46.618;10.764;2023-12-04T07:43:41;93390.56;;;-3.25;100.00
57248;BME280;55809;46.618;10.764;2023-12-04T07:46:12;93394.94;;;-3.20;100.00
57248;BME280;55809;46.618;10.764;2023-12-04T07:48:42;93403.69;;;-2.89;100.00
57248;BME280;55809;46.618;10.764;2023-12-04T07:51:17;93397.97;;;-2.82;100.00
57248;BME280;55809;46.618;10.764;2023-12-04T07:53:46;93406.84;;;-2.78;100.00
57248;BME280;55809;46.618;10.764;2023-12-04T07:56:14;93306.47;;;-3.40;100.00
57248;BME280;55809;46.618;10.764;2023-12-04T07:58:42;93400.72;;;-2.56;100.00
57248;BME280;55809;46.618;10.764;2023-12-04T08:01:11;93372.66;;;-2.34;100.00
57248;BME280;55809;46.618;10.764;2023-12-04T08:03:39;93409.88;;;-2.22;100.00
57248;BME280;55809;46.618;10.764;2023-12-04T08:06:12;93406.78;;;-2.55;100.00
57248;BME280;55809;46.618;10.764;2023-12-04T08:08:40;93404.66;;;-2.45;100.00
57248;BME280;55809;46.618;10.764;2023-12-04T08:11:09;93403.97;;;-2.19;100.00
57248;BME280;55809;46.618;10.764;2023-12-04T08:13:38;93401.53;;;-2.07;100.00
57248;BME280;55809;46.618;10.764;2023-12-04T08:16:13;93414.75;;;-1.98;100.00
57248;BME280;55809;46.618;10.764;2023-12-04T08:18:41;93331.25;;;-2.56;100.00
57248;BME280;55809;46.618;10.764;2023-12-04T08:21:11;93380.31;;;-2.24;100.00
57248;BME280;55809;46.618;10.764;2023-12-04T08:23:40;93409.91;;;-2.05;100.00
57248;BME280;55809;46.618;10.764;2023-12-04T08:26:08;93404.94;;;-1.98;100.00
57248;BME280;55809;46.618;10.764;2023-12-04T08:28:38;93363.47;;;-2.46;100.00
57248;BME280;55809;46.618;10.764;2023-12-04T08:31:08;93405.91;;;-2.42;100.00
57248;BME280;55809;46.618;10.764;2023-12-04T08:33:38;93392.81;;;-2.47;100.00
57248;BME280;55809;46.618;10.764;2023-12-04T08:36:08;93386.34;;;-2.32;100.00
57248;BME280;55809;46.618;10.764;2023-12-04T08:38:37;93294.22;;;-3.05;100.00
57248;BME280;55809;46.618;10.764;2023-12-04T08:41:06;93385.16;;;-2.66;100.00
57248;BME280;55809;46.618;10.764;2023-12-04T08:43:42;93380.28;;;-2.73;100.00
57248;BME280;55809;46.618;10.764;2023-12-04T08:46:12;93374.56;;;-2.97;100.00
57248;BME280;55809;46.618;10.764;2023-12-04T08:48:40;93375.56;;;-2.85;100.00
57248;BME280;55809;46.618;10.764;2023-12-04T08:51:15;93388.78;;;-2.85;100.00
57248;BME280;55809;46.618;10.764;2023-12-04T08:53:44;93391.75;;;-2.77;100.00
57248;BME280;55809;46.618;10.764;2023-12-04T08:56:13;93396.44;;;-2.74;100.00
57248;BME280;55809;46.618;10.764;2023-12-04T08:58:42;93385.00;;;-2.61;100.00
57248;BME280;55809;46.618;10.764;2023-12-04T09:01:09;93380.03;;;-2.54;100.00
57248;BME280;55809;46.618;10.764;2023-12-04T09:03:37;93378.00;;;-2.57;100.00
57248;BME280;55809;46.618;10.764;2023-12-04T09:06:06;93374.00;;;-2.54;100.00
57248;BME280;55809;46.618;10.764;2023-12-04T09:08:36;93360.78;;;-2.54;100.00
57248;BME280;55809;46.618;10.764;2023-12-04T09:11:08;93363.75;;;-2.47;100.00
57248;BME280;55809;46.618;10.764;2023-12-04T09:13:36;93349.03;;;-2.40;100.00
57248;BME280;55809;46.618;10.764;2023-12-04T09:16:06;93354.00;;;-2.38;100.00
57248;BME280;55809;46.618;10.764;2023-12-04T09:18:41;93357.13;;;-2.36;100.00
57248;BME280;55809;46.618;10.764;2023-12-04T09:21:11;93367.09;;;-2.24;100.00
57248;BME280;55809;46.618;10.764;2023-12-04T09:23:41;93358.88;;;-2.23;100.00
57248;BME280;55809;46.618;10.764;2023-12-04T09:26:15;93361.34;;;-2.26;100.00
57248;BME280;55809;46.618;10.764;2023-12-04T09:28:43;93350.19;;;-2.06;100.00
57248;BME280;55809;46.618;10.764;2023-12-04T09:31:11;93334.47;;;-2.02;100.00
57248;BME280;55809;46.618;10.764;2023-12-04T09:33:42;93335.59;;;-1.86;100.00
57248;BME280;55809;46.618;10.764;2023-12-04T09:36:10;93333.25;;;-1.87;100.00
57248;BME280;55809;46.618;10.764;2023-12-04T09:38:38;93327.34;;;-1.76;100.00
57248;BME280;55809;46.618;10.764;2023-12-04T09:41:14;93328.28;;;-1.63;100.00
57248;BME280;55809;46.618;10.764;2023-12-04T09:43:44;93335.56;;;-1.43;100.00
57248;BME280;55809;46.618;10.764;2023-12-04T09:46:13;93334.47;;;-1.42;100.00
57248;BME280;55809;46.618;10.764;2023-12-04T09:48:44;93334.47;;;-1.42;100.00
57248;BME280;55809;46.618;10.764;2023-12-04T09:51:15;93342.91;;;-1.31;100.00
57248;BME280;55809;46.618;10.764;2023-12-04T09:53:47;93342.09;;;-1.05;100.00
57248;BME280;55809;46.618;10.764;2023-12-04T09:56:16;93340.84;;;-1.16;100.00
57248;BME280;55809;46.618;10.764;2023-12-04T09:58:46;93336.47;;;-1.12;100.00
57248;BME280;55809;46.618;10.764;2023-12-04T10:01:17;93343.16;;;-1.06;100.00
57248;BME280;55809;46.618;10.764;2023-12-04T10:03:46;93331.63;;;-1.02;100.00
57248;BME280;55809;46.618;10.764;2023-12-04T10:06:16;93340.16;;;-0.87;100.00
57248;BME280;55809;46.618;10.764;2023-12-04T10:08:43;93343.25;;;-0.77;100.00
57248;BME280;55809;46.618;10.764;2023-12-04T10:11:13;93342.00;;;-0.79;100.00
57248;BME280;55809;46.618;10.764;2023-12-04T10:13:44;93334.50;;;-0.77;100.00
57248;BME280;55809;46.618;10.764;2023-12-04T10:16:13;93336.88;;;-0.84;100.00
57248;BME280;55809;46.618;10.764;2023-12-04T10:18:41;93312.59;;;-0.95;100.00
57248;BME280;55809;46.618;10.764;2023-12-04T10:21:09;93310.28;;;-1.05;100.00
57248;BME280;55809;46.618;10.764;2023-12-04T10:23:41;93295.66;;;-1.11;100.00
57248;BME280;55809;46.618;10.764;2023-12-04T10:26:08;93277.25;;;-1.08;100.00
57248;BME280;55809;46.618;10.764;2023-12-04T10:28:36;93277.91;;;-1.11;100.00
57248;BME280;55809;46.618;10.764;2023-12-04T10:31:06;93277.41;;;-1.04;100.00
57248;BME280;55809;46.618;10.764;2023-12-04T10:33:34;93271.78;;;-1.03;100.00
57248;BME280;55809;46.618;10.764;2023-12-04T10:36:13;93262.63;;;-1.05;100.00
57248;BME280;55809;46.618;10.764;2023-12-04T10:38:41;93267.59;;;-1.04;100.00
57248;BME280;55809;46.618;10.764;2023-12-04T10:41:12;93264.78;;;-0.99;100.00
57248;BME280;55809;46.618;10.764;2023-12-04T10:43:46;93245.28;;;-1.03;100.00
57248;BME280;55809;46.618;10.764;2023-12-04T10:46:20;93257.06;;;-0.83;100.00
57248;BME280;55809;46.618;10.764;2023-12-04T10:48:49;93257.13;;;-1.00;100.00
57248;BME280;55809;46.618;10.764;2023-12-04T10:51:18;93253.56;;;-1.04;100.00
57248;BME280;55809;46.618;10.764;2023-12-04T10:53:48;93252.78;;;-1.05;100.00
57248;BME280;55809;46.618;10.764;2023-12-04T10:56:19;93240.81;;;-1.11;100.00
57248;BME280;55809;46.618;10.764;2023-12-04T10:58:52;93243.75;;;-1.04;100.00
57248;BME280;55809;46.618;10.764;2023-12-04T11:01:29;93239.56;;;-1.05;100.00
57248;BME280;55809;46.618;10.764;2023-12-04T11:03:59;93243.25;;;-0.97;100.00
57248;BME280;55809;46.618;10.764;2023-12-04T11:06:28;93237.47;;;-0.99;100.00
57248;BME280;55809;46.618;10.764;2023-12-04T11:08:58;93235.44;;;-0.93;100.00
57248;BME280;55809;46.618;10.764;2023-12-04T11:11:30;93182.28;;;-1.27;100.00
57248;BME280;55809;46.618;10.764;2023-12-04T11:14:01;93221.09;;;-0.92;100.00
57248;BME280;55809;46.618;10.764;2023-12-04T11:16:34;93226.31;;;-0.75;100.00
57248;BME280;55809;46.618;10.764;2023-12-04T11:19:12;93147.53;;;-1.25;100.00
57248;BME280;55809;46.618;10.764;2023-12-04T11:21:45;93214.78;;;-0.79;100.00
57248;BME280;55809;46.618;10.764;2023-12-04T11:24:13;93205.66;;;-0.61;100.00
57248;BME280;55809;46.618;10.764;2023-12-04T11:26:41;93203.47;;;-0.59;100.00
57248;BME280;55809;46.618;10.764;2023-12-04T11:29:09;93110.25;;;-1.11;100.00
57248;BME280;55809;46.618;10.764;2023-12-04T11:31:41;93189.41;;;-0.59;100.00
57248;BME280;55809;46.618;10.764;2023-12-04T11:34:09;93166.53;;;-0.64;100.00
57248;BME280;55809;46.618;10.764;2023-12-04T11:36:38;93187.63;;;-0.47;100.00
57248;BME280;55809;46.618;10.764;2023-12-04T11:39:09;93191.22;;;-0.42;100.00
57248;BME280;55809;46.618;10.764;2023-12-04T11:41:36;93193.34;;;-0.36;100.00
57248;BME280;55809;46.618;10.764;2023-12-04T11:44:12;93198.13;;;-0.29;100.00
57248;BME280;55809;46.618;10.764;2023-12-04T11:46:55;93201.81;;;-0.42;100.00
57248;BME280;55809;46.618;10.764;2023-12-04T11:49:29;93199.34;;;-0.48;100.00
57248;BME280;55809;46.618;10.764;2023-12-04T11:51:57;93199.03;;;-0.25;100.00
57248;BME280;55809;46.618;10.764;2023-12-04T11:54:26;93156.16;;;-0.69;100.00
57248;BME280;55809;46.618;10.764;2023-12-04T11:57:04;93197.41;;;-0.38;100.00
57248;BME280;55809;46.618;10.764;2023-12-04T11:59:45;93155.94;;;-0.43;100.00
57248;BME280;55809;46.618;10.764;2023-12-04T12:02:15;93180.25;;;-0.20;100.00
57248;BME280;55809;46.618;10.764;2023-12-04T12:04:42;93168.81;;;-0.12;100.00
57248;BME280;55809;46.618;10.764;2023-12-04T12:07:10;93168.69;;;-0.15;100.00
57248;BME280;55809;46.618;10.764;2023-12-04T12:09:38;93159.31;;;-0.13;100.00
57248;BME280;55809;46.618;10.764;2023-12-04T12:12:06;93155.53;;;-0.12;100.00
57248;BME280;55809;46.618;10.764;2023-12-04T12:14:33;93066.13;;;-0.44;100.00
57248;BME280;55809;46.618;10.764;2023-12-04T12:17:01;93137.34;;;-0.01;100.00
57248;BME280;55809;46.618;10.764;2023-12-04T12:19:29;93133.06;;;0.07;100.00
57248;BME280;55809;46.618;10.764;2023-12-04T12:21:56;93133.16;;;-0.02;100.00
57248;BME280;55809;46.618;10.764;2023-12-04T12:24:24;93121.81;;;-0.11;100.00
57248;BME280;55809;46.618;10.764;2023-12-04T12:26:51;93041.97;;;-0.64;100.00
57248;BME280;55809;46.618;10.764;2023-12-04T12:29:18;93053.09;;;-0.71;100.00
57248;BME280;55809;46.618;10.764;2023-12-04T12:31:45;93128.81;;;-0.07;100.00
57248;BME280;55809;46.618;10.764;2023-12-04T12:34:12;93118.41;;;-0.12;100.00
57248;BME280;55809;46.618;10.764;2023-12-04T12:36:41;93103.31;;;-0.32;100.00
57248;BME280;55809;46.618;10.764;2023-12-04T12:39:08;93120.88;;;-0.28;100.00
57248;BME280;55809;46.618;10.764;2023-12-04T12:41:37;93115.91;;;-0.29;100.00
57248;BME280;55809;46.618;10.764;2023-12-04T12:44:04;93109.63;;;-0.25;100.00
57248;BME280;55809;46.618;10.764;2023-12-04T12:46:31;93084.56;;;-0.15;100.00